Time;durP1;ratioP1;P1;durP2;ratioP2;P2;SDS_P1;SDS_P2;PMS_P1;PMS_P2;Temp;Humidity;BMP_temperature;BMP_pressure;BME280_temperature;BME280_humidity;BME280_pressure;Samples;Min_cycle;Max_cycle;Signal;HPM_P1;HPM_P2
2023/05/12 00:02:58;;;;;;;18.13;10.83;;;;;;;;;;5053699;28;20230;-74
2023/05/12 00:06:03;;;;;;;13.20;11.50;;;;;;;;;;5053901;28;20554;-74
2023/05/12 00:09:08;;;;;;;13.00;11.30;;;;;;;;;;5053951;28;20692;-74
2023/05/12 00:12:12;;;;;;;14.53;11.07;;;;;;;;;;5041559;28;20728;-74
2023/05/12 00:15:18;;;;;;;12.97;10.83;;;;;;;;;;5053681;28;20207;-74
2023/05/12 00:18:23;;;;;;;12.93;10.47;;;;;;;;;;5053550;28;20219;-73
2023/05/12 00:21:27;;;;;;;12.93;11.20;;;;;;;;;;5053662;28;20238;-73
2023/05/12 00:24:31;;;;;;;16.83;11.80;;;;;;;;;;5053525;28;20187;-74
2023/05/12 00:27:35;;;;;;;15.07;11.63;;;;;;;;;;5053383;28;20179;-73
2023/05/12 00:30:39;;;;;;;14.43;11.47;;;;;;;;;;5041362;28;20183;-74
2023/05/12 00:33:43;;;;;;;13.97;11.73;;;;;;;;;;5041757;28;20534;-73
2023/05/12 00:36:48;;;;;;;14.90;11.70;;;;;;;;;;5053342;28;20207;-74
2023/05/12 00:39:52;;;;;;;16.87;11.97;;;;;;;;;;5053221;28;20203;-74
2023/05/12 00:42:56;;;;;;;14.23;11.77;;;;;;;;;;5041119;28;20222;-73
2023/05/12 00:46:03;;;;;;;18.73;13.03;;;;;;;;;;5040873;28;20202;-74
2023/05/12 00:49:07;;;;;;;16.23;12.73;;;;;;;;;;5018659;28;20195;-74
2023/05/12 00:52:11;;;;;;;16.37;12.77;;;;;;;;;;5033816;28;20222;-74
2023/05/12 00:55:16;;;;;;;15.13;12.43;;;;;;;;;;5045173;28;20183;-74
2023/05/12 00:58:20;;;;;;;13.83;11.37;;;;;;;;;;5033747;28;20586;-73
2023/05/12 01:01:24;;;;;;;17.37;12.37;;;;;;;;;;5045347;28;20231;-73
2023/05/12 01:04:32;;;;;;;14.83;11.90;;;;;;;;;;5044611;28;20207;-73
2023/05/12 01:07:38;;;;;;;15.53;12.97;;;;;;;;;;5044683;28;20179;-73
2023/05/12 01:10:43;;;;;;;15.20;12.17;;;;;;;;;;5033899;28;20191;-73
2023/05/12 01:13:48;;;;;;;15.67;12.17;;;;;;;;;;5044806;28;20211;-73
2023/05/12 01:16:57;;;;;;;13.87;11.57;;;;;;;;;;5044564;28;20191;-73
2023/05/12 01:20:04;;;;;;;14.33;11.87;;;;;;;;;;5045096;28;20219;-74
2023/05/12 01:23:10;;;;;;;14.17;12.07;;;;;;;;;;5044333;28;20218;-74
2023/05/12 01:26:14;;;;;;;13.03;11.10;;;;;;;;;;5044579;28;20655;-74
2023/05/12 01:29:20;;;;;;;11.57;9.57;;;;;;;;;;5044839;28;20221;-73
2023/05/12 01:32:25;;;;;;;11.97;9.00;;;;;;;;;;5044303;28;20228;-73
2023/05/12 01:35:29;;;;;;;10.40;9.00;;;;;;;;;;5056861;28;20188;-73
2023/05/12 01:38:36;;;;;;;9.50;8.50;;;;;;;;;;5044175;28;20211;-73
2023/05/12 01:41:40;;;;;;;10.37;8.97;;;;;;;;;;5032719;28;20212;-73
2023/05/12 01:44:45;;;;;;;10.60;9.00;;;;;;;;;;5044150;28;20188;-73
2023/05/12 01:47:49;;;;;;;12.37;8.87;;;;;;;;;;5044043;28;20172;-74
2023/05/12 01:50:53;;;;;;;9.30;8.40;;;;;;;;;;5032683;28;20197;-73
2023/05/12 01:53:59;;;;;;;10.87;7.53;;;;;;;;;;5044204;28;20196;-74
2023/05/12 01:57:07;;;;;;;9.27;8.10;;;;;;;;;;5032474;28;20562;-74
2023/05/12 02:00:13;;;;;;;9.30;8.17;;;;;;;;;;5032359;28;20180;-74
2023/05/12 02:03:18;;;;;;;9.47;8.13;;;;;;;;;;5043126;28;20212;-74
2023/05/12 02:06:22;;;;;;;8.10;7.13;;;;;;;;;;5032880;28;20622;-73
2023/05/12 02:09:26;;;;;;;10.00;8.57;;;;;;;;;;5043713;28;20536;-74
2023/05/12 02:12:36;;;;;;;10.47;8.50;;;;;;;;;;5032221;28;20219;-74
2023/05/12 02:15:40;;;;;;;10.60;9.03;;;;;;;;;;5032326;28;20567;-73
2023/05/12 02:18:44;;;;;;;9.07;7.67;;;;;;;;;;5043541;28;20695;-74
2023/05/12 02:21:48;;;;;;;9.50;8.50;;;;;;;;;;5043369;28;20686;-74
2023/05/12 02:24:52;;;;;;;9.70;8.37;;;;;;;;;;5043157;28;20180;-73
2023/05/12 02:27:56;;;;;;;9.63;8.20;;;;;;;;;;5020342;28;20195;-74
2023/05/12 02:31:00;;;;;;;9.00;7.60;;;;;;;;;;5031569;28;20192;-73
2023/05/12 02:34:06;;;;;;;9.00;8.10;;;;;;;;;;5043346;28;20199;-74
2023/05/12 02:37:10;;;;;;;9.90;8.13;;;;;;;;;;5055365;28;20172;-74
2023/05/12 02:40:15;;;;;;;11.00;8.30;;;;;;;;;;5042979;28;20176;-74
2023/05/12 02:43:19;;;;;;;9.80;8.57;;;;;;;;;;5042659;28;20223;-74
2023/05/12 02:46:23;;;;;;;10.53;8.63;;;;;;;;;;5042622;28;20196;-73
2023/05/12 02:49:27;;;;;;;9.07;7.90;;;;;;;;;;5042818;28;20187;-74
2023/05/12 02:52:31;;;;;;;9.07;7.83;;;;;;;;;;5042754;28;20216;-74
2023/05/12 02:55:35;;;;;;;8.67;7.63;;;;;;;;;;5042510;28;20615;-74
2023/05/12 02:58:39;;;;;;;8.97;7.90;;;;;;;;;;5031418;28;20203;-74
2023/05/12 03:01:43;;;;;;;14.20;8.57;;;;;;;;;;5054887;28;20215;-74
2023/05/12 03:04:48;;;;;;;10.10;8.20;;;;;;;;;;5031177;28;20189;-74
2023/05/12 03:07:52;;;;;;;9.40;8.17;;;;;;;;;;5042488;28;20180;-73
2023/05/12 03:10:56;;;;;;;9.73;8.60;;;;;;;;;;5042604;28;20188;-73
2023/05/12 03:14:00;;;;;;;11.90;9.47;;;;;;;;;;5041241;28;20173;-74
2023/05/12 03:17:04;;;;;;;11.17;9.10;;;;;;;;;;5042452;28;20193;-73
2023/05/12 03:20:09;;;;;;;10.97;9.30;;;;;;;;;;5031023;28;20175;-73
2023/05/12 03:23:14;;;;;;;12.20;9.93;;;;;;;;;;5041790;28;20215;-74
2023/05/12 03:26:18;;;;;;;10.50;9.10;;;;;;;;;;5042003;28;20180;-75
2023/05/12 03:29:24;;;;;;;11.63;9.93;;;;;;;;;;5041926;28;20175;-74
2023/05/12 03:32:28;;;;;;;11.60;9.43;;;;;;;;;;5041695;28;20219;-73
2023/05/12 03:35:32;;;;;;;13.10;10.00;;;;;;;;;;5030486;28;20183;-73
2023/05/12 03:38:39;;;;;;;12.53;10.27;;;;;;;;;;5041659;28;20218;-73
2023/05/12 03:41:43;;;;;;;15.73;11.80;;;;;;;;;;5041444;28;20231;-74
2023/05/12 03:44:47;;;;;;;13.80;11.20;;;;;;;;;;5041312;28;20211;-73
2023/05/12 03:47:51;;;;;;;16.03;12.33;;;;;;;;;;5041706;28;20546;-73
2023/05/12 03:50:55;;;;;;;16.40;12.50;;;;;;;;;;5041507;28;20673;-74
2023/05/12 03:53:59;;;;;;;17.87;13.47;;;;;;;;;;5041161;28;20207;-73
2023/05/12 03:57:04;;;;;;;15.90;13.07;;;;;;;;;;5041463;28;20278;-74
2023/05/12 04:00:09;;;;;;;19.10;13.87;;;;;;;;;;5041312;28;20215;-73
2023/05/12 04:03:21;;;;;;;16.37;14.40;;;;;;;;;;5040868;28;20226;-73
2023/05/12 04:06:25;;;;;;;18.57;13.73;;;;;;;;;;5029563;28;20203;-74
2023/05/12 04:09:31;;;;;;;20.47;14.53;;;;;;;;;;5040872;28;20191;-74
2023/05/12 04:12:36;;;;;;;18.93;14.90;;;;;;;;;;5073057;22;20589;-69
2023/05/12 04:15:40;;;;;;;17.63;13.27;;;;;;;;;;5049682;28;20541;-69
2023/05/12 04:18:44;;;;;;;20.27;14.27;;;;;;;;;;5049748;28;20210;-69
2023/05/12 04:21:49;;;;;;;19.97;13.33;;;;;;;;;;5073471;28;20214;-69
2023/05/12 04:24:53;;;;;;;19.07;14.37;;;;;;;;;;5041089;28;20214;-69
2023/05/12 04:27:57;;;;;;;16.30;13.37;;;;;;;;;;5051721;28;20198;-69
2023/05/12 04:31:05;;;;;;;17.40;14.17;;;;;;;;;;5029477;28;20210;-69
2023/05/12 04:34:10;;;;;;;13.73;12.30;;;;;;;;;;5021400;28;20547;-68
2023/05/12 04:37:14;;;;;;;21.07;14.30;;;;;;;;;;4998668;28;20184;-68
2023/05/12 04:40:19;;;;;;;15.50;13.60;;;;;;;;;;5009768;28;20216;-68
2023/05/12 04:43:23;;;;;;;21.93;13.10;;;;;;;;;;5013285;28;20231;-67
2023/05/12 04:46:27;;;;;;;19.30;13.43;;;;;;;;;;5029600;28;20242;-68
2023/05/12 04:49:32;;;;;;;19.27;13.70;;;;;;;;;;5029370;28;20179;-68
2023/05/12 04:52:37;;;;;;;16.50;13.80;;;;;;;;;;5040328;28;20227;-68
2023/05/12 04:55:41;;;;;;;16.63;12.77;;;;;;;;;;5028781;28;20191;-67
2023/05/12 04:58:46;;;;;;;19.10;14.07;;;;;;;;;;5040690;28;20238;-68
2023/05/12 05:01:50;;;;;;;15.90;12.97;;;;;;;;;;5040317;28;20575;-68
2023/05/12 05:04:55;;;;;;;19.17;13.70;;;;;;;;;;5052808;28;20180;-68
2023/05/12 05:08:01;;;;;;;16.87;14.23;;;;;;;;;;5040263;28;20187;-68
2023/05/12 05:11:05;;;;;;;16.90;13.70;;;;;;;;;;5040443;28;20685;-68
2023/05/12 05:14:10;;;;;;;16.93;13.50;;;;;;;;;;5040961;28;20559;-68
2023/05/12 05:17:14;;;;;;;18.63;13.80;;;;;;;;;;5029185;28;20179;-68
2023/05/12 05:20:19;;;;;;;22.80;13.47;;;;;;;;;;5040383;28;20210;-68
2023/05/12 05:23:24;;;;;;;16.53;13.63;;;;;;;;;;5040329;28;20222;-68
2023/05/12 05:26:30;;;;;;;20.77;14.20;;;;;;;;;;5028865;28;20214;-68
2023/05/12 05:29:34;;;;;;;16.63;14.13;;;;;;;;;;5028885;28;20191;-68
2023/05/12 05:32:39;;;;;;;15.33;13.20;;;;;;;;;;5040016;28;20219;-68
2023/05/12 05:35:44;;;;;;;19.13;13.63;;;;;;;;;;5040037;28;20192;-71
2023/05/12 05:38:49;;;;;;;22.97;14.27;;;;;;;;;;5032194;28;20215;-68
2023/05/12 05:41:53;;;;;;;15.47;13.83;;;;;;;;;;5043555;28;20230;-68
2023/05/12 05:44:58;;;;;;;16.00;13.27;;;;;;;;;;5056031;28;20235;-68
2023/05/12 05:48:02;;;;;;;16.67;13.93;;;;;;;;;;5056552;28;20207;-68
2023/05/12 05:51:10;;;;;;;17.33;13.07;;;;;;;;;;5032131;28;20523;-68
2023/05/12 05:54:14;;;;;;;16.90;13.37;;;;;;;;;;5043639;28;20192;-68
2023/05/12 05:57:20;;;;;;;16.47;12.80;;;;;;;;;;5031984;28;20219;-68
2023/05/12 06:00:24;;;;;;;14.60;12.50;;;;;;;;;;5043294;28;20694;-68
2023/05/12 06:03:30;;;;;;;18.83;13.47;;;;;;;;;;5012628;28;20661;-68
2023/05/12 06:06:34;;;;;;;15.37;11.87;;;;;;;;;;5023157;28;20219;-68
2023/05/12 06:09:38;;;;;;;12.77;11.43;;;;;;;;;;5012416;28;20180;-69
2023/05/12 06:12:43;;;;;;;16.90;12.73;;;;;;;;;;5023191;28;20232;-69
2023/05/12 06:15:47;;;;;;;17.20;12.77;;;;;;;;;;5012335;28;20191;-68
2023/05/12 06:18:51;;;;;;;13.43;11.43;;;;;;;;;;5023513;28;20223;-68
2023/05/12 06:21:55;;;;;;;14.13;11.17;;;;;;;;;;5011902;28;20220;-69
2023/05/12 06:25:00;;;;;;;13.67;11.50;;;;;;;;;;5023488;28;20663;-69
2023/05/12 06:28:04;;;;;;;13.03;10.77;;;;;;;;;;5035643;28;20192;-69
2023/05/12 06:31:08;;;;;;;11.30;10.10;;;;;;;;;;5024341;28;20180;-67
2023/05/12 06:34:13;;;;;;;12.50;11.00;;;;;;;;;;5063149;28;20186;-69
2023/05/12 06:37:18;;;;;;;13.47;9.80;;;;;;;;;;5063189;28;20191;-68
2023/05/12 06:40:22;;;;;;;12.33;10.40;;;;;;;;;;5063226;28;20203;-69
2023/05/12 06:43:26;;;;;;;14.17;10.10;;;;;;;;;;5074867;28;20226;-69
2023/05/12 06:46:32;;;;;;;11.83;9.80;;;;;;;;;;5062846;28;20198;-69
2023/05/12 06:49:37;;;;;;;10.30;9.20;;;;;;;;;;5062819;28;20182;-69
2023/05/12 06:52:42;;;;;;;13.60;10.07;;;;;;;;;;5062386;28;20223;-69
2023/05/12 06:55:46;;;;;;;12.13;9.87;;;;;;;;;;5062664;28;20191;-69
2023/05/12 06:58:51;;;;;;;25.30;10.07;;;;;;;;;;5062297;28;20191;-69
2023/05/12 07:01:55;;;;;;;12.03;9.33;;;;;;;;;;5074974;28;20222;-68
2023/05/12 07:05:00;;;;;;;12.53;9.90;;;;;;;;;;5074538;28;20186;-69
2023/05/12 07:08:04;;;;;;;10.77;9.30;;;;;;;;;;5074478;28;20175;-69
2023/05/12 07:11:08;;;;;;;12.73;8.40;;;;;;;;;;5074604;28;20200;-68
2023/05/12 07:14:12;;;;;;;12.53;8.87;;;;;;;;;;5080463;28;20192;-69
2023/05/12 07:17:16;;;;;;;9.70;8.70;;;;;;;;;;5074578;28;20257;-69
2023/05/12 07:20:21;;;;;;;17.63;9.00;;;;;;;;;;5074418;28;20207;-69
2023/05/12 07:23:25;;;;;;;10.47;8.37;;;;;;;;;;5074055;28;20224;-69
2023/05/12 07:26:29;;;;;;;13.47;9.20;;;;;;;;;;5074378;28;20188;-69
2023/05/12 07:29:33;;;;;;;9.83;8.77;;;;;;;;;;5074220;28;20176;-69
2023/05/12 07:32:37;;;;;;;17.80;9.63;;;;;;;;;;5074086;28;20223;-68
2023/05/12 07:35:42;;;;;;;9.77;8.53;;;;;;;;;;5074228;28;20190;-69
2023/05/12 07:38:45;;;;;;;9.57;8.13;;;;;;;;;;5050337;28;20180;-69
2023/05/12 07:41:51;;;;;;;9.20;8.27;;;;;;;;;;5074285;28;20211;-69
2023/05/12 07:44:55;;;;;;;11.43;8.30;;;;;;;;;;5073955;28;20191;-69
2023/05/12 07:48:00;;;;;;;10.93;8.97;;;;;;;;;;5073996;28;20190;-69
2023/05/12 07:51:07;;;;;;;11.23;8.60;;;;;;;;;;5061902;28;20538;-69
2023/05/12 07:54:12;;;;;;;9.53;8.27;;;;;;;;;;5073762;28;20622;-69
2023/05/12 07:57:16;;;;;;;8.50;7.63;;;;;;;;;;5061800;28;20515;-69
2023/05/12 08:00:20;;;;;;;12.37;8.23;;;;;;;;;;5073325;28;20546;-69
2023/05/12 08:03:25;;;;;;;10.63;7.80;;;;;;;;;;5073691;28;20226;-69
2023/05/12 08:06:29;;;;;;;11.13;7.87;;;;;;;;;;5073715;28;20190;-69
2023/05/12 08:09:33;;;;;;;10.47;8.37;;;;;;;;;;5073693;28;20562;-68
2023/05/12 08:12:39;;;;;;;13.23;8.43;;;;;;;;;;5061131;28;20243;-69
2023/05/12 08:15:45;;;;;;;11.20;8.43;;;;;;;;;;5073534;28;20184;-69
2023/05/12 08:18:49;;;;;;;9.10;8.07;;;;;;;;;;5073579;28;20178;-69
2023/05/12 08:21:53;;;;;;;8.37;7.10;;;;;;;;;;5073733;28;20673;-69
2023/05/12 08:24:57;;;;;;;8.03;7.30;;;;;;;;;;5073185;28;20179;-69
2023/05/12 08:28:02;;;;;;;8.73;6.87;;;;;;;;;;5073495;28;20183;-69
2023/05/12 08:31:06;;;;;;;9.47;7.17;;;;;;;;;;5060987;28;20184;-69
2023/05/12 08:34:10;;;;;;;8.50;6.77;;;;;;;;;;5073694;28;20183;-69
2023/05/12 08:37:14;;;;;;;10.47;7.27;;;;;;;;;;5073062;28;20187;-69
2023/05/12 08:40:20;;;;;;;7.80;7.00;;;;;;;;;;5060673;28;20218;-69
2023/05/12 08:43:35;;;;;;;8.70;7.27;;;;;;;;;;5073236;28;20215;-69
2023/05/12 08:46:39;;;;;;;16.40;8.00;;;;;;;;;;5073534;28;20507;-69
2023/05/12 08:49:44;;;;;;;13.03;7.40;;;;;;;;;;5073238;28;20179;-69
2023/05/12 08:52:49;;;;;;;7.70;6.93;;;;;;;;;;5072931;28;20226;-69
2023/05/12 08:55:55;;;;;;;7.93;7.00;;;;;;;;;;5073097;28;20195;-69
2023/05/12 08:59:01;;;;;;;14.03;7.50;;;;;;;;;;5073126;28;20184;-69
2023/05/12 09:02:08;;;;;;;9.00;7.13;;;;;;;;;;5073312;28;20216;-69
2023/05/12 09:05:12;;;;;;;9.67;7.60;;;;;;;;;;5061024;28;20180;-69
2023/05/12 09:08:17;;;;;;;11.83;6.93;;;;;;;;;;5072766;28;20179;-69
2023/05/12 09:11:21;;;;;;;7.10;6.40;;;;;;;;;;5061844;28;20171;-68
2023/05/12 09:14:28;;;;;;;10.13;6.67;;;;;;;;;;5064785;28;20179;-68
2023/05/12 09:17:34;;;;;;;7.40;6.50;;;;;;;;;;5076914;28;20180;-69
2023/05/12 09:20:38;;;;;;;8.50;6.07;;;;;;;;;;5064348;28;20206;-69
2023/05/12 09:23:56;;;;;;;7.17;5.97;;;;;;;;;;5076677;28;20183;-69
2023/05/12 09:27:01;;;;;;;11.47;5.87;;;;;;;;;;5064077;28;20677;-69
2023/05/12 09:30:06;;;;;;;8.37;6.17;;;;;;;;;;5076454;28;20176;-69
2023/05/12 09:33:11;;;;;;;8.00;5.87;;;;;;;;;;5076169;28;20211;-69
2023/05/12 09:36:23;;;;;;;6.53;5.90;;;;;;;;;;5076196;28;20195;-69
2023/05/12 09:39:27;;;;;;;6.97;6.17;;;;;;;;;;5076453;28;20184;-69
2023/05/12 09:42:33;;;;;;;10.43;6.50;;;;;;;;;;5076048;28;20211;-68
2023/05/12 09:45:41;;;;;;;7.47;6.33;;;;;;;;;;5076123;28;20191;-69
2023/05/12 09:48:46;;;;;;;8.87;6.83;;;;;;;;;;5076032;28;20176;-69
2023/05/12 09:52:00;;;;;;;9.27;5.93;;;;;;;;;;5076170;28;20208;-69
2023/05/12 09:55:09;;;;;;;6.43;5.63;;;;;;;;;;5063923;28;20183;-69
2023/05/12 09:58:18;;;;;;;8.10;5.20;;;;;;;;;;5076063;28;20195;-69
2023/05/12 10:01:24;;;;;;;6.40;5.80;;;;;;;;;;5076112;28;20207;-69
2023/05/12 10:04:40;;;;;;;9.67;5.30;;;;;;;;;;5063699;28;20191;-69
2023/05/12 10:07:49;;;;;;;6.87;4.53;;;;;;;;;;5063596;28;20191;-69
2023/05/12 10:10:55;;;;;;;8.47;5.40;;;;;;;;;;5075861;28;20176;-69
2023/05/12 10:14:00;;;;;;;6.40;5.10;;;;;;;;;;5075411;28;20203;-69
2023/05/12 10:17:05;;;;;;;7.77;5.07;;;;;;;;;;5053083;28;20191;-68
2023/05/12 10:20:12;;;;;;;6.40;5.67;;;;;;;;;;5043437;28;20208;-69
2023/05/12 10:23:17;;;;;;;8.97;5.23;;;;;;;;;;5055049;28;20219;-70
2023/05/12 10:26:22;;;;;;;15.53;5.77;;;;;;;;;;5043174;28;20184;-70
2023/05/12 10:29:31;;;;;;;9.43;4.93;;;;;;;;;;5043133;28;20579;-70
2023/05/12 10:32:35;;;;;;;21.13;6.60;;;;;;;;;;5043009;28;20212;-70
2023/05/12 10:35:42;;;;;;;10.97;6.10;;;;;;;;;;5031973;28;20247;-70
2023/05/12 10:38:50;;;;;;;10.13;5.70;;;;;;;;;;5043077;28;20180;-70
2023/05/12 10:42:04;;;;;;;5.97;5.37;;;;;;;;;;5055148;28;20239;-69
2023/05/12 10:45:17;;;;;;;6.97;5.17;;;;;;;;;;5042911;28;20196;-71
2023/05/12 10:48:21;;;;;;;7.50;5.60;;;;;;;;;;5022774;28;20196;-71
2023/05/12 10:51:28;;;;;;;6.97;5.37;;;;;;;;;;5011928;28;20552;-70
2023/05/12 10:54:43;;;;;;;7.50;5.37;;;;;;;;;;5034844;28;20185;-70
2023/05/12 10:57:49;;;;;;;9.57;5.47;;;;;;;;;;5022765;28;20177;-70
2023/05/12 11:00:53;;;;;;;6.80;5.30;;;;;;;;;;5011218;28;20209;-70
2023/05/12 11:04:12;;;;;;;10.97;6.27;;;;;;;;;;5022494;28;20177;-70
2023/05/12 11:07:20;;;;;;;6.83;5.20;;;;;;;;;;5022776;28;20181;-70
2023/05/12 11:10:24;;;;;;;7.30;5.33;;;;;;;;;;5034800;28;20169;-70
2023/05/12 11:13:29;;;;;;;6.43;5.27;;;;;;;;;;5034356;28;20228;-70
2023/05/12 11:16:33;;;;;;;5.80;5.20;;;;;;;;;;5040537;28;20200;-69
2023/05/12 11:19:38;;;;;;;8.23;5.87;;;;;;;;;;5031016;28;20195;-70
2023/05/12 11:22:43;;;;;;;8.63;5.80;;;;;;;;;;5053950;28;20208;-70
2023/05/12 11:25:47;;;;;;;6.73;5.80;;;;;;;;;;5054284;28;20524;-70
2023/05/12 11:28:52;;;;;;;12.53;5.70;;;;;;;;;;5054103;28;20175;-70
2023/05/12 11:31:57;;;;;;;6.43;5.27;;;;;;;;;;5054455;28;20219;-69
2023/05/12 11:35:12;;;;;;;6.67;5.73;;;;;;;;;;5053594;28;20508;-70
2023/05/12 11:38:17;;;;;;;7.10;5.30;;;;;;;;;;5042142;28;20180;-71
2023/05/12 11:41:23;;;;;;;6.57;5.77;;;;;;;;;;5054279;28;20662;-69
2023/05/12 11:44:28;;;;;;;5.73;5.17;;;;;;;;;;5054367;28;20520;-69
2023/05/12 11:47:32;;;;;;;6.30;5.10;;;;;;;;;;5053675;28;20555;-68
2023/05/12 11:50:38;;;;;;;5.60;5.00;;;;;;;;;;5054508;28;20176;-69
2023/05/12 11:53:42;;;;;;;6.60;5.33;;;;;;;;;;5053681;28;20176;-69
2023/05/12 11:56:48;;;;;;;6.47;4.63;;;;;;;;;;5041232;28;20536;-69
2023/05/12 12:00:00;;;;;;;7.83;5.00;;;;;;;;;;5041490;28;20180;-68
2023/05/12 12:03:10;;;;;;;4.57;3.77;;;;;;;;;;5054026;28;20208;-68
2023/05/12 12:06:15;;;;;;;4.53;3.93;;;;;;;;;;5053756;28;20184;-68
2023/05/12 12:09:29;;;;;;;5.67;3.70;;;;;;;;;;5029845;28;20172;-69
2023/05/12 12:12:33;;;;;;;4.50;4.10;;;;;;;;;;5041189;28;20224;-69
2023/05/12 12:15:37;;;;;;;4.03;3.50;;;;;;;;;;5041204;28;20172;-69
2023/05/12 12:18:41;;;;;;;5.73;3.40;;;;;;;;;;5053550;28;20180;-69
2023/05/12 12:21:45;;;;;;;6.93;3.60;;;;;;;;;;5053052;28;20223;-69
2023/05/12 12:24:49;;;;;;;5.37;3.60;;;;;;;;;;5029509;28;20210;-69
2023/05/12 12:28:27;;;;;;;5.50;3.70;;;;;;;;;;5053266;28;20207;-68
2023/05/12 12:31:33;;;;;;;5.73;3.57;;;;;;;;;;4957498;28;20223;-74
2023/05/12 12:34:37;;;;;;;3.63;3.13;;;;;;;;;;4974601;28;20633;-74
2023/05/12 12:37:41;;;;;;;6.13;3.60;;;;;;;;;;4984988;28;20199;-74
2023/05/12 12:40:45;;;;;;;3.27;2.97;;;;;;;;;;4974598;28;20210;-74
2023/05/12 12:43:50;;;;;;;5.23;3.10;;;;;;;;;;4962719;28;20629;-73
2023/05/12 12:46:54;;;;;;;3.30;3.00;;;;;;;;;;4978561;28;20183;-74
2023/05/12 12:49:58;;;;;;;3.80;3.03;;;;;;;;;;4968873;28;20183;-74
2023/05/12 12:53:02;;;;;;;4.50;3.30;;;;;;;;;;4980649;28;20218;-74
2023/05/12 12:56:06;;;;;;;3.70;3.27;;;;;;;;;;4980971;28;20186;-74
2023/05/12 12:59:10;;;;;;;5.70;3.30;;;;;;;;;;4991299;28;20633;-74
2023/05/12 13:02:14;;;;;;;5.27;3.33;;;;;;;;;;4980688;28;20712;-74
2023/05/12 13:05:18;;;;;;;4.77;3.13;;;;;;;;;;4968638;28;20178;-74
2023/05/12 13:08:23;;;;;;;3.23;2.93;;;;;;;;;;4980389;28;20191;-74
2023/05/12 13:11:27;;;;;;;3.90;2.97;;;;;;;;;;4980814;28;20697;-74
2023/05/12 13:14:31;;;;;;;3.63;2.97;;;;;;;;;;4980414;28;20174;-74
2023/05/12 13:17:35;;;;;;;2.93;2.63;;;;;;;;;;4980535;28;20178;-74
2023/05/12 13:20:39;;;;;;;2.80;2.57;;;;;;;;;;4968580;28;20178;-74
2023/05/12 13:23:44;;;;;;;3.10;2.77;;;;;;;;;;4980340;28;20179;-74
2023/05/12 13:26:48;;;;;;;2.83;2.63;;;;;;;;;;4980571;28;20187;-74
2023/05/12 13:29:52;;;;;;;5.70;2.80;;;;;;;;;;4980269;28;20206;-74
2023/05/12 13:32:56;;;;;;;3.00;2.60;;;;;;;;;;4980290;28;20218;-73
2023/05/12 13:36:00;;;;;;;3.60;2.97;;;;;;;;;;4990715;28;20277;-73
2023/05/12 13:39:05;;;;;;;6.03;2.67;;;;;;;;;;4980177;28;20187;-74
2023/05/12 13:42:09;;;;;;;3.00;2.40;;;;;;;;;;4979920;28;20226;-74
2023/05/12 13:45:14;;;;;;;4.73;2.40;;;;;;;;;;4979354;28;20499;-73
2023/05/12 13:48:18;;;;;;;2.33;2.10;;;;;;;;;;4969099;28;20523;-73
2023/05/12 13:51:22;;;;;;;2.67;2.47;;;;;;;;;;4968519;28;20179;-74
2023/05/12 13:54:27;;;;;;;2.50;2.00;;;;;;;;;;4980362;28;20175;-73
2023/05/12 13:57:31;;;;;;;2.47;1.90;;;;;;;;;;4978714;28;20191;-73
2023/05/12 14:00:36;;;;;;;2.90;2.27;;;;;;;;;;4977327;28;20191;-72
2023/05/12 14:03:40;;;;;;;3.80;2.40;;;;;;;;;;4976294;28;20183;-72
2023/05/12 14:06:44;;;;;;;2.40;2.20;;;;;;;;;;4977360;28;20186;-73
2023/05/12 14:09:49;;;;;;;2.73;2.53;;;;;;;;;;4967046;28;20202;-72
2023/05/12 14:12:53;;;;;;;3.00;2.80;;;;;;;;;;4968109;28;20215;-72
2023/05/12 14:15:57;;;;;;;3.87;2.57;;;;;;;;;;4980250;28;20175;-73
2023/05/12 14:19:01;;;;;;;2.70;2.43;;;;;;;;;;4968638;28;20178;-73
2023/05/12 14:22:05;;;;;;;2.93;2.67;;;;;;;;;;4980596;28;20226;-73
2023/05/12 14:25:09;;;;;;;3.37;2.77;;;;;;;;;;4968385;28;20179;-73
2023/05/12 14:28:14;;;;;;;2.87;2.67;;;;;;;;;;4979723;28;20179;-73
2023/05/12 14:31:18;;;;;;;7.40;3.43;;;;;;;;;;4967330;28;20179;-74
2023/05/12 14:34:22;;;;;;;4.07;3.30;;;;;;;;;;4979179;28;20175;-74
2023/05/12 14:37:26;;;;;;;4.03;3.40;;;;;;;;;;4989431;28;20175;-74
2023/05/12 14:40:30;;;;;;;4.60;3.30;;;;;;;;;;4956022;28;20178;-73
2023/05/12 14:43:34;;;;;;;4.67;3.60;;;;;;;;;;4978472;28;20195;-73
2023/05/12 14:46:38;;;;;;;4.00;3.60;;;;;;;;;;4978548;28;20203;-73
2023/05/12 14:49:42;;;;;;;4.60;3.70;;;;;;;;;;4966031;28;20178;-73
2023/05/12 14:52:47;;;;;;;3.97;3.47;;;;;;;;;;4977855;28;20211;-73
2023/05/12 14:55:51;;;;;;;3.77;3.47;;;;;;;;;;4987897;28;20633;-73
2023/05/12 14:58:55;;;;;;;4.20;3.77;;;;;;;;;;4977766;28;20183;-73
2023/05/12 15:01:59;;;;;;;4.87;4.00;;;;;;;;;;4965356;28;20226;-73
2023/05/12 15:05:08;;;;;;;4.50;3.30;;;;;;;;;;4977017;28;20187;-73
2023/05/12 15:08:13;;;;;;;2.90;2.30;;;;;;;;;;4977049;28;20187;-73
2023/05/12 15:11:17;;;;;;;3.63;2.07;;;;;;;;;;4976797;28;20183;-73
2023/05/12 15:14:21;;;;;;;3.60;1.90;;;;;;;;;;4976208;28;20187;-73
2023/05/12 15:17:26;;;;;;;2.27;2.07;;;;;;;;;;4976730;28;20182;-73
2023/05/12 15:20:30;;;;;;;2.60;2.10;;;;;;;;;;4976317;28;20183;-73
2023/05/12 15:23:34;;;;;;;2.20;2.00;;;;;;;;;;4975998;28;20207;-73
2023/05/12 15:26:39;;;;;;;3.90;3.03;;;;;;;;;;4976331;28;20182;-74
2023/05/12 15:29:43;;;;;;;4.07;2.20;;;;;;;;;;4976083;28;20206;-73
2023/05/12 15:32:47;;;;;;;4.60;2.80;;;;;;;;;;4964205;28;20218;-74
2023/05/12 15:35:51;;;;;;;9.00;2.57;;;;;;;;;;4975952;28;20191;-73
2023/05/12 15:38:55;;;;;;;2.30;2.10;;;;;;;;;;4975791;28;20199;-72
2023/05/12 15:42:00;;;;;;;1.80;1.70;;;;;;;;;;4963386;28;20566;-73
2023/05/12 15:45:05;;;;;;;2.90;2.23;;;;;;;;;;4975797;28;20183;-73
2023/05/12 15:48:09;;;;;;;2.20;2.00;;;;;;;;;;4963711;28;20183;-73
2023/05/12 15:51:13;;;;;;;2.67;2.03;;;;;;;;;;4975795;28;20516;-74
2023/05/12 15:54:18;;;;;;;5.87;1.90;;;;;;;;;;4975539;28;20187;-73
2023/05/12 15:57:22;;;;;;;4.20;1.97;;;;;;;;;;4963506;28;20183;-72
2023/05/12 16:00:26;;;;;;;2.83;2.13;;;;;;;;;;4975359;28;20179;-74
2023/05/12 16:03:30;;;;;;;3.53;1.97;;;;;;;;;;4975197;28;20218;-73
2023/05/12 16:06:34;;;;;;;3.73;1.87;;;;;;;;;;4975309;28;20198;-73
2023/05/12 16:09:38;;;;;;;3.90;2.10;;;;;;;;;;4975054;28;20630;-73
2023/05/12 16:12:44;;;;;;;4.20;1.87;;;;;;;;;;4975071;28;20306;-74
2023/05/12 16:15:49;;;;;;;3.80;2.20;;;;;;;;;;4985409;28;20182;-73
2023/05/12 16:18:54;;;;;;;4.87;2.23;;;;;;;;;;4985610;28;20202;-74
2023/05/12 16:21:58;;;;;;;4.10;2.00;;;;;;;;;;4974342;28;20222;-74
2023/05/12 16:25:03;;;;;;;4.67;2.30;;;;;;;;;;4963522;28;20179;-73
2023/05/12 16:28:07;;;;;;;3.63;1.90;;;;;;;;;;4985993;28;20187;-74
2023/05/12 16:31:16;;;;;;;2.70;1.90;;;;;;;;;;4974730;28;20183;-73
2023/05/12 16:34:20;;;;;;;2.80;1.90;;;;;;;;;;4974952;28;20515;-73
2023/05/12 16:37:26;;;;;;;2.60;1.73;;;;;;;;;;4974965;28;20626;-74
2023/05/12 16:40:30;;;;;;;2.60;1.67;;;;;;;;;;4984922;28;20190;-73
2023/05/12 16:43:34;;;;;;;2.37;1.70;;;;;;;;;;4963068;28;20218;-73
2023/05/12 16:46:38;;;;;;;7.60;1.53;;;;;;;;;;4974757;28;20542;-74
2023/05/12 16:49:42;;;;;;;5.70;2.30;;;;;;;;;;4985116;28;20179;-74
2023/05/12 16:52:46;;;;;;;2.03;1.60;;;;;;;;;;4974920;28;20210;-73
2023/05/12 16:55:51;;;;;;;3.80;1.90;;;;;;;;;;4984798;28;20220;-74
2023/05/12 16:58:55;;;;;;;2.87;2.20;;;;;;;;;;4962498;28;20547;-73
2023/05/12 17:02:00;;;;;;;1.97;1.70;;;;;;;;;;4974886;28;20689;-73
2023/05/12 17:05:04;;;;;;;1.93;1.73;;;;;;;;;;4962379;28;20198;-73
2023/05/12 17:08:09;;;;;;;2.60;1.73;;;;;;;;;;4984719;28;20199;-73
2023/05/12 17:11:13;;;;;;;4.03;1.70;;;;;;;;;;4984846;28;20183;-73
2023/05/12 17:14:18;;;;;;;4.40;1.53;;;;;;;;;;4962787;28;20183;-73
2023/05/12 17:17:21;;;;;;;3.07;1.60;;;;;;;;;;4962456;28;20183;-73
2023/05/12 17:20:26;;;;;;;1.40;1.30;;;;;;;;;;4962992;28;20179;-73
2023/05/12 17:23:30;;;;;;;1.50;1.33;;;;;;;;;;4974122;28;20697;-74
2023/05/12 17:26:34;;;;;;;2.47;1.63;;;;;;;;;;4974129;28;20182;-74
2023/05/12 17:29:38;;;;;;;1.77;1.53;;;;;;;;;;4973153;28;20210;-73
2023/05/12 17:32:42;;;;;;;1.63;1.47;;;;;;;;;;4974502;28;20218;-73
2023/05/12 17:35:46;;;;;;;1.97;1.80;;;;;;;;;;4977640;28;20187;-73
2023/05/12 17:38:50;;;;;;;1.57;1.33;;;;;;;;;;4977804;28;20187;-73
2023/05/12 17:41:54;;;;;;;2.37;1.20;;;;;;;;;;4977944;28;20690;-73
2023/05/12 17:44:59;;;;;;;1.43;1.33;;;;;;;;;;4977797;28;20187;-74
2023/05/12 17:48:05;;;;;;;1.70;1.60;;;;;;;;;;4977526;28;20187;-73
2023/05/12 17:51:09;;;;;;;2.73;1.60;;;;;;;;;;4965419;28;20203;-73
2023/05/12 17:54:13;;;;;;;1.30;1.20;;;;;;;;;;4965292;28;20543;-73
2023/05/12 17:57:17;;;;;;;2.50;1.50;;;;;;;;;;4965724;28;20179;-73
2023/05/12 18:00:21;;;;;;;1.73;1.40;;;;;;;;;;4977158;28;20203;-73
2023/05/12 18:03:26;;;;;;;1.60;1.47;;;;;;;;;;4977204;28;20227;-73
2023/05/12 18:06:30;;;;;;;2.30;1.43;;;;;;;;;;4965921;28;20179;-73
2023/05/12 18:09:35;;;;;;;1.83;1.70;;;;;;;;;;4965547;28;20530;-73
2023/05/12 18:12:39;;;;;;;3.03;2.03;;;;;;;;;;4966277;28;20214;-73
2023/05/12 18:15:43;;;;;;;2.13;1.93;;;;;;;;;;4977422;28;20186;-73
2023/05/12 18:18:47;;;;;;;3.17;1.80;;;;;;;;;;4977143;28;20183;-73